Time;durP1;ratioP1;P1;durP2;ratioP2;P2;SDS_P1;SDS_P2;PMS_P1;PMS_P2;Temp;Humidity;BMP_temperature;BMP_pressure;BME280_temperature;BME280_humidity;BME280_pressure;Samples;Min_cycle;Max_cycle;Signal;HPM_P1;HPM_P2
2023/01/30 00:01:15;;;;;;;59.97;27.40;;;;;;;2.37;100.00;100216.72;5004023;28;20488;-90
2023/01/30 00:03:43;;;;;;;44.00;22.67;;;;;;;2.24;100.00;100227.97;5004477;28;20527;-90
2023/01/30 00:06:10;;;;;;;48.27;26.60;;;;;;;2.44;100.00;100247.91;5004983;28;20490;-89
2023/01/30 00:08:39;;;;;;;54.90;28.57;;;;;;;2.44;100.00;100255.00;5007473;28;20460;-92
2023/01/30 00:11:09;;;;;;;49.30;25.43;;;;;;;2.49;100.00;100266.13;5006111;28;20476;-91
2023/01/30 00:13:37;;;;;;;53.07;26.20;;;;;;;2.50;100.00;100262.56;5005512;28;20487;-90
2023/01/30 00:16:08;;;;;;;57.47;30.10;;;;;;;2.71;100.00;100273.66;5004358;28;20506;-91
2023/01/30 00:18:35;;;;;;;51.07;27.57;;;;;;;2.67;100.00;100260.72;5005856;28;20491;-90
2023/01/30 00:21:06;;;;;;;56.80;29.97;;;;;;;2.64;100.00;100243.28;5003235;28;20507;-89
2023/01/30 00:23:34;;;;;;;48.10;28.23;;;;;;;2.74;100.00;100230.38;5006661;28;20447;-89
2023/01/30 00:26:02;;;;;;;57.67;28.83;;;;;;;2.75;100.00;100224.19;5006356;28;20475;-90
2023/01/30 00:28:29;;;;;;;51.63;27.53;;;;;;;2.66;100.00;100219.41;5006021;28;20853;-90
2023/01/30 00:30:56;;;;;;;55.47;28.10;;;;;;;2.71;100.00;100228.78;5003062;28;20562;-92
2023/01/30 00:33:25;;;;;;;57.17;29.80;;;;;;;2.86;100.00;100232.28;4993661;28;20472;-92
2023/01/30 00:35:53;;;;;;;47.23;27.93;;;;;;;2.71;100.00;100231.44;5009578;28;20472;-90
2023/01/30 00:38:21;;;;;;;53.77;27.23;;;;;;;2.95;100.00;100222.97;5006688;28;20982;-90
2023/01/30 00:40:48;;;;;;;48.03;27.93;;;;;;;2.94;100.00;100243.25;5013255;28;20475;-91
2023/01/30 00:48:49;;;;;;;53.97;28.90;;;;;;;2.86;100.00;100207.69;5009102;28;20447;-90
2023/01/30 00:51:15;;;;;;;51.70;27.57;;;;;;;2.88;100.00;100197.88;5007075;28;20507;-89
2023/01/30 00:53:43;;;;;;;52.73;29.30;;;;;;;2.80;100.00;100170.16;5007973;28;20467;-88
2023/01/30 00:56:10;;;;;;;47.63;25.97;;;;;;;2.80;100.00;100167.50;5007401;28;20488;-89
2023/01/30 00:58:36;;;;;;;54.37;29.77;;;;;;;2.87;100.00;100156.59;5005303;28;20952;-89
2023/01/30 01:01:03;;;;;;;56.43;29.50;;;;;;;2.85;100.00;100148.75;5005632;28;20479;-90
2023/01/30 01:03:30;;;;;;;55.13;29.40;;;;;;;2.88;100.00;100140.63;5006989;28;20457;-92
2023/01/30 01:05:57;;;;;;;57.07;29.57;;;;;;;2.85;100.00;100129.41;5007887;28;20475;-90
2023/01/30 01:08:24;;;;;;;50.23;27.93;;;;;;;2.89;100.00;100130.94;5006926;28;20881;-90
2023/01/30 01:10:55;;;;;;;53.03;28.87;;;;;;;2.87;100.00;100141.59;5002577;28;20499;-90
2023/01/30 01:13:21;;;;;;;52.37;28.10;;;;;;;2.75;100.00;100126.50;5005041;28;20472;-90
2023/01/30 01:15:49;;;;;;;53.07;28.80;;;;;;;2.70;100.00;100121.50;5002758;28;20471;-92
2023/01/30 01:18:16;;;;;;;55.50;30.53;;;;;;;2.74;100.00;100103.66;5009504;28;20924;-92
2023/01/30 01:20:43;;;;;;;57.00;30.83;;;;;;;2.77;100.00;100112.25;5007911;28;20495;-90
2023/01/30 01:23:10;;;;;;;52.13;29.07;;;;;;;2.63;100.00;100105.16;5005115;28;20448;-91
2023/01/30 01:25:43;;;;;;;52.70;31.03;;;;;;;2.73;100.00;100107.28;4993747;28;20484;-91
2023/01/30 01:28:11;;;;;;;60.37;28.40;;;;;;;2.75;100.00;100110.66;5006657;28;20468;-90
2023/01/30 01:30:38;;;;;;;62.30;28.87;;;;;;;2.71;100.00;100115.28;5008162;28;20480;-90
2023/01/30 01:33:04;;;;;;;56.53;29.33;;;;;;;2.58;100.00;100094.03;5009277;28;20436;-89
2023/01/30 01:35:31;;;;;;;62.23;28.67;;;;;;;2.66;100.00;100105.91;5007614;28;21011;-90
2023/01/30 01:37:57;;;;;;;51.17;27.83;;;;;;;2.65;100.00;100097.16;5009079;28;20484;-89
2023/01/30 01:43:17;;;;;;;56.60;28.57;;;;;;;2.69;100.00;100074.06;4994881;28;20984;-88
2023/01/30 01:45:44;;;;;;;50.90;28.63;;;;;;;2.70;100.00;100071.34;5008961;28;20475;-91
2023/01/30 01:48:15;;;;;;;55.47;28.77;;;;;;;2.66;100.00;100071.59;5009951;28;20452;-86
2023/01/30 01:50:46;;;;;;;52.70;28.07;;;;;;;2.63;100.00;100060.31;5008870;28;20486;-88
2023/01/30 01:53:18;;;;;;;48.40;25.57;;;;;;;2.57;100.00;100063.34;5007923;28;20443;-91
2023/01/30 01:55:46;;;;;;;60.70;29.20;;;;;;;2.73;100.00;100059.75;5005772;28;20472;-91
2023/01/30 01:58:17;;;;;;;55.30;28.50;;;;;;;2.67;100.00;100074.16;5006270;28;20515;-89
2023/01/30 02:00:44;;;;;;;59.47;30.10;;;;;;;2.74;100.00;100067.59;5004537;28;20500;-87
2023/01/30 02:03:14;;;;;;;60.60;31.13;;;;;;;2.79;100.00;100059.34;5004429;28;21094;-87
2023/01/30 02:05:44;;;;;;;51.03;29.23;;;;;;;2.76;100.00;100054.25;5005078;28;20875;-88
2023/01/30 02:08:15;;;;;;;55.90;30.93;;;;;;;2.74;100.00;100059.66;5005058;28;20483;-88
2023/01/30 02:10:48;;;;;;;63.90;32.90;;;;;;;2.86;100.00;100059.81;5004964;28;20476;-87
2023/01/30 02:13:16;;;;;;;65.50;33.03;;;;;;;2.85;100.00;100053.72;5004657;28;20449;-89
2023/01/30 02:15:43;;;;;;;58.23;31.83;;;;;;;2.82;100.00;100044.16;5006601;28;20495;-87
2023/01/30 02:18:10;;;;;;;62.07;32.37;;;;;;;2.89;100.00;100042.00;5006775;28;20480;-91
2023/01/30 02:20:50;;;;;;;64.77;33.90;;;;;;;2.92;100.00;100039.16;5003210;28;20507;-89
2023/01/30 02:23:44;;;;;;;62.10;30.70;;;;;;;3.00;100.00;100044.81;5007333;28;20483;-85
2023/01/30 02:26:23;;;;;;;65.70;33.17;;;;;;;3.01;100.00;100024.53;5001182;28;20492;-89
2023/01/30 02:29:29;;;;;;;68.93;32.57;;;;;;;3.17;100.00;100019.94;4997869;28;20452;-88
2023/01/30 02:32:01;;;;;;;62.23;29.20;;;;;;;3.00;100.00;99991.13;5005444;28;20745;-90
2023/01/30 02:34:39;;;;;;;55.53;30.83;;;;;;;3.07;100.00;99991.59;5007100;28;20872;-88
2023/01/30 02:37:13;;;;;;;69.17;31.50;;;;;;;3.09;100.00;99982.63;5004989;28;20483;-90
2023/01/30 02:39:49;;;;;;;73.13;33.10;;;;;;;3.18;100.00;99986.47;5008515;28;20579;-88
2023/01/30 02:42:23;;;;;;;66.30;31.40;;;;;;;3.15;100.00;99965.53;5008696;28;20480;-88
2023/01/30 02:44:55;;;;;;;63.67;32.20;;;;;;;3.19;100.00;99972.28;5009376;28;20444;-89
2023/01/30 02:47:26;;;;;;;60.87;30.77;;;;;;;3.33;100.00;99971.41;5005642;28;20571;-92
2023/01/30 02:49:54;;;;;;;55.70;31.50;;;;;;;3.21;100.00;99954.53;5004575;28;20964;-88
2023/01/30 02:52:22;;;;;;;69.70;34.70;;;;;;;3.29;100.00;99967.28;5003727;28;20491;-87
2023/01/30 02:54:48;;;;;;;61.37;33.30;;;;;;;3.29;100.00;99941.69;5003435;28;20452;-87
2023/01/30 02:57:18;;;;;;;63.40;33.43;;;;;;;3.30;100.00;99947.81;5004059;28;20510;-89
2023/01/30 02:59:46;;;;;;;59.37;32.30;;;;;;;3.42;100.00;99938.22;5003821;28;20499;-87
2023/01/30 03:02:44;;;;;;;60.47;34.50;;;;;;;3.49;100.00;99934.22;5003497;28;20551;-87
2023/01/30 03:05:26;;;;;;;67.60;31.30;;;;;;;3.42;100.00;99935.59;4999835;28;20456;-89
2023/01/30 03:08:03;;;;;;;63.57;32.40;;;;;;;3.52;100.00;99936.66;5009997;28;20455;-89
2023/01/30 03:10:37;;;;;;;57.70;32.57;;;;;;;3.52;100.00;99939.31;5007582;28;20558;-91
2023/01/30 03:13:12;;;;;;;69.63;34.03;;;;;;;3.51;100.00;99929.69;5008019;28;20480;-89
2023/01/30 03:15:41;;;;;;;61.53;31.57;;;;;;;3.58;100.00;99941.56;5003057;28;20479;-90
2023/01/30 03:18:09;;;;;;;63.03;32.13;;;;;;;3.53;100.00;99943.66;5004409;28;20479;-90
2023/01/30 03:20:37;;;;;;;58.57;32.47;;;;;;;3.50;100.00;99918.25;5003902;28;20510;-91
2023/01/30 03:23:04;;;;;;;56.00;30.40;;;;;;;3.54;100.00;99940.03;5004872;28;20507;-91
2023/01/30 03:25:31;;;;;;;56.57;29.73;;;;;;;3.64;100.00;99929.72;4998096;28;20506;-90
2023/01/30 03:27:58;;;;;;;58.00;30.90;;;;;;;3.67;100.00;99934.78;5003291;28;20483;-91
2023/01/30 03:30:26;;;;;;;53.20;27.93;;;;;;;3.66;100.00;99925.16;5002165;28;20484;-89
2023/01/30 03:32:52;;;;;;;52.87;30.27;;;;;;;3.77;100.00;99898.84;5002477;28;20690;-90
2023/01/30 03:35:21;;;;;;;53.43;29.30;;;;;;;3.67;100.00;99898.63;5002192;28;20448;-88
2023/01/30 03:37:47;;;;;;;51.53;28.47;;;;;;;3.70;100.00;99901.06;5002712;28;20491;-90
2023/01/30 03:40:15;;;;;;;55.50;28.20;;;;;;;3.64;100.00;99890.88;5002255;28;20495;-91
2023/01/30 03:42:42;;;;;;;58.70;30.13;;;;;;;3.72;100.00;99891.22;5003392;28;20541;-90
2023/01/30 03:45:10;;;;;;;50.73;26.50;;;;;;;3.76;100.00;99890.03;5003531;28;20471;-91
2023/01/30 03:47:36;;;;;;;44.43;25.20;;;;;;;3.68;100.00;99841.28;5004029;28;20452;-88
2023/01/30 03:50:03;;;;;;;42.83;25.03;;;;;;;3.69;100.00;99872.91;5005861;28;20472;-90
2023/01/30 03:52:34;;;;;;;48.97;24.90;;;;;;;3.70;100.00;99873.78;5004837;28;20483;-90
2023/01/30 03:55:01;;;;;;;38.30;23.30;;;;;;;3.64;100.00;99863.63;5004872;28;20486;-87
2023/01/30 03:57:27;;;;;;;40.83;25.73;;;;;;;3.67;100.00;99872.19;5007092;28;20508;-88
2023/01/30 03:59:57;;;;;;;46.53;24.40;;;;;;;3.63;100.00;99865.44;5008636;28;20526;-90
2023/01/30 04:02:25;;;;;;;43.30;25.97;;;;;;;3.79;100.00;99870.50;5006589;28;20484;-88
2023/01/30 04:04:51;;;;;;;41.63;23.73;;;;;;;3.81;100.00;99860.66;5006206;28;20452;-89
2023/01/30 04:07:20;;;;;;;43.67;24.37;;;;;;;3.85;100.00;99856.81;5007918;28;20480;-88
2023/01/30 04:09:48;;;;;;;48.90;25.27;;;;;;;3.80;100.00;99855.47;5010003;28;20436;-92
2023/01/30 04:12:18;;;;;;;42.00;24.13;;;;;;;3.85;100.00;99848.06;5009449;28;20538;-88
2023/01/30 04:14:44;;;;;;;46.40;26.33;;;;;;;3.87;100.00;99839.06;5009290;28;20448;-90
2023/01/30 04:17:12;;;;;;;49.30;28.27;;;;;;;3.91;100.00;99839.69;5008665;28;20488;-88
2023/01/30 04:19:39;;;;;;;47.70;26.60;;;;;;;3.94;100.00;99848.28;5008084;28;20535;-88
2023/01/30 04:22:05;;;;;;;46.97;28.73;;;;;;;3.93;100.00;99846.56;5008183;28;20494;-88
2023/01/30 04:24:32;;;;;;;46.90;29.40;;;;;;;3.98;100.00;99846.25;5006230;28;20452;-89
2023/01/30 04:27:00;;;;;;;51.73;28.57;;;;;;;3.95;100.00;99844.66;5005499;28;20542;-88
2023/01/30 04:29:27;;;;;;;49.90;28.07;;;;;;;4.08;100.00;99857.88;5006863;28;20516;-89
2023/01/30 04:31:53;;;;;;;48.27;30.90;;;;;;;4.02;100.00;99845.06;5005284;28;20543;-89
2023/01/30 04:34:20;;;;;;;47.83;28.90;;;;;;;4.02;100.00;99853.00;5006168;28;20475;-91
2023/01/30 04:36:46;;;;;;;52.27;29.13;;;;;;;4.04;100.00;99856.38;5005586;28;20507;-88
2023/01/30 04:39:13;;;;;;;51.77;30.10;;;;;;;4.07;100.00;99852.69;5005658;28;20482;-90
2023/01/30 04:41:40;;;;;;;49.10;29.30;;;;;;;4.24;100.00;99852.31;5005743;28;20468;-90
2023/01/30 04:44:08;;;;;;;52.37;29.70;;;;;;;4.12;100.00;99838.16;5006803;28;20483;-89
2023/01/30 04:46:35;;;;;;;47.43;26.90;;;;;;;4.25;100.00;99850.50;5004755;28;20530;-91
2023/01/30 04:49:01;;;;;;;45.33;26.20;;;;;;;4.26;100.00;99844.28;5006729;28;20479;-91
2023/01/30 04:51:28;;;;;;;40.03;26.20;;;;;;;4.25;100.00;99853.16;5005769;28;20511;-92
2023/01/30 04:53:55;;;;;;;45.07;25.37;;;;;;;4.30;100.00;99843.09;5006009;28;20920;-92
2023/01/30 04:56:21;;;;;;;49.87;28.30;;;;;;;4.37;100.00;99833.75;5006065;28;20496;-91
2023/01/30 04:58:51;;;;;;;49.60;27.67;;;;;;;4.52;100.00;99835.28;5007022;28;20559;-92
2023/01/30 05:01:22;;;;;;;45.23;27.17;;;;;;;4.49;100.00;99835.50;5002527;28;20966;-89
2023/01/30 05:03:50;;;;;;;44.63;26.23;;;;;;;4.53;100.00;99821.09;5007193;28;20519;-92
2023/01/30 05:06:17;;;;;;;42.67;27.00;;;;;;;4.62;100.00;99818.75;5005835;28;20993;-91
2023/01/30 05:08:43;;;;;;;39.33;22.40;;;;;;;4.55;100.00;99809.53;5004411;28;20464;-89
2023/01/30 05:11:10;;;;;;;37.43;21.33;;;;;;;4.60;100.00;99810.03;5004879;28;20488;-89
2023/01/30 05:13:36;;;;;;;45.37;24.70;;;;;;;4.69;100.00;99815.53;5006432;28;20516;-89
2023/01/30 05:16:03;;;;;;;39.70;22.77;;;;;;;4.59;100.00;99801.28;5003673;28;20546;-92
2023/01/30 05:18:32;;;;;;;34.73;20.43;;;;;;;4.72;100.00;99812.66;5005860;28;20448;-90
2023/01/30 05:21:04;;;;;;;38.80;22.40;;;;;;;4.71;100.00;99810.94;5004574;28;20550;-89
2023/01/30 05:23:31;;;;;;;35.17;20.80;;;;;;;4.81;100.00;99799.66;4999796;28;20467;-92
2023/01/30 05:25:58;;;;;;;35.20;20.47;;;;;;;4.74;100.00;99809.03;5006806;28;20486;-89
2023/01/30 05:28:26;;;;;;;33.10;19.57;;;;;;;4.80;100.00;99804.13;5008322;28;20460;-90
2023/01/30 05:30:53;;;;;;;33.40;19.40;;;;;;;4.88;100.00;99806.22;4995164;28;20546;-91
2023/01/30 05:33:20;;;;;;;30.40;17.67;;;;;;;4.96;100.00;99817.06;5002213;28;20850;-89
2023/01/30 05:35:48;;;;;;;29.97;18.83;;;;;;;4.98;100.00;99806.34;5009087;28;20515;-89
2023/01/30 05:38:15;;;;;;;28.83;17.57;;;;;;;4.95;100.00;99806.56;5007346;28;20490;-88
2023/01/30 05:40:42;;;;;;;30.60;19.33;;;;;;;4.88;100.00;99815.00;5003834;28;20507;-90
2023/01/30 05:43:09;;;;;;;29.20;17.57;;;;;;;4.93;100.00;99825.25;5005677;28;20486;-92
2023/01/30 05:45:35;;;;;;;24.77;17.43;;;;;;;4.93;100.00;99812.00;4998555;28;20481;-89
2023/01/30 05:48:03;;;;;;;26.90;16.03;;;;;;;4.95;100.00;99822.47;4992967;28;20464;-91
2023/01/30 05:50:29;;;;;;;24.40;15.03;;;;;;;4.96;100.00;99825.00;5006488;28;20463;-91
2023/01/30 05:52:57;;;;;;;26.20;15.60;;;;;;;5.10;100.00;99837.22;5009900;28;20455;-93
2023/01/30 05:55:24;;;;;;;24.80;15.80;;;;;;;5.07;100.00;99832.16;5012093;28;20832;-92
2023/01/30 05:57:54;;;;;;;22.97;14.57;;;;;;;5.18;100.00;99842.78;5000660;28;20992;-90
2023/01/30 06:00:21;;;;;;;23.00;14.57;;;;;;;5.01;100.00;99828.16;4986006;28;20516;-89
2023/01/30 06:02:48;;;;;;;22.20;14.67;;;;;;;5.12;100.00;99845.91;4977860;28;20468;-90
2023/01/30 06:05:15;;;;;;;21.73;12.73;;;;;;;5.05;100.00;99839.38;4983321;28;20460;-91
2023/01/30 06:07:44;;;;;;;18.77;12.30;;;;;;;4.94;100.00;99840.16;4966060;28;20889;-90
2023/01/30 06:10:13;;;;;;;17.37;12.03;;;;;;;5.05;100.00;99834.06;4979965;28;20441;-89
2023/01/30 06:12:39;;;;;;;15.43;11.93;;;;;;;5.07;100.00;99835.66;4980962;28;20500;-90
2023/01/30 06:15:07;;;;;;;21.03;13.10;;;;;;;5.14;100.00;99837.81;4985235;28;20448;-87
2023/01/30 06:17:33;;;;;;;20.83;13.17;;;;;;;5.17;100.00;99838.44;4982902;28;20465;-90
2023/01/30 06:20:00;;;;;;;19.60;12.97;;;;;;;5.14;100.00;99832.53;4984978;28;20508;-90
2023/01/30 06:22:27;;;;;;;22.83;14.00;;;;;;;5.15;100.00;99836.88;4983988;28;20493;-91
2023/01/30 06:24:55;;;;;;;26.43;15.90;;;;;;;5.27;100.00;99846.53;4970164;28;20457;-90
2023/01/30 06:27:23;;;;;;;23.90;15.50;;;;;;;5.13;100.00;99836.16;4979329;28;20505;-88
2023/01/30 06:29:50;;;;;;;25.20;15.53;;;;;;;5.12;100.00;99839.75;4979988;28;20503;-89
2023/01/30 06:32:19;;;;;;;24.30;15.10;;;;;;;5.17;100.00;99843.72;4970241;28;20491;-87
2023/01/30 06:34:46;;;;;;;25.50;15.67;;;;;;;5.14;100.00;99848.41;4980006;28;20787;-89
2023/01/30 06:37:13;;;;;;;23.17;14.60;;;;;;;5.18;100.00;99849.91;4980323;28;20509;-89
2023/01/30 06:39:39;;;;;;;20.23;14.43;;;;;;;5.27;100.00;99846.53;4976608;28;20468;-89
2023/01/30 06:42:07;;;;;;;22.50;13.90;;;;;;;5.27;100.00;99846.53;4969240;28;20896;-90
2023/01/30 06:44:35;;;;;;;19.20;13.50;;;;;;;5.32;100.00;99846.19;4984252;28;20544;-89
2023/01/30 06:47:03;;;;;;;20.37;13.80;;;;;;;5.25;100.00;99851.13;4980658;28;20539;-88
2023/01/30 06:49:30;;;;;;;21.73;13.50;;;;;;;5.23;100.00;99845.94;4984002;28;20468;-91
2023/01/30 06:51:56;;;;;;;24.17;14.40;;;;;;;5.30;100.00;99853.44;4981751;28;20516;-89
2023/01/30 06:54:23;;;;;;;21.23;13.43;;;;;;;5.35;100.00;99857.41;4983356;28;20501;-89
2023/01/30 06:56:51;;;;;;;20.67;13.47;;;;;;;5.36;100.00;99851.13;4982346;28;21032;-88
2023/01/30 06:59:17;;;;;;;21.40;14.00;;;;;;;5.35;100.00;99859.22;4994621;28;20510;-90
2023/01/30 07:01:48;;;;;;;24.00;13.10;;;;;;;5.43;100.00;99843.56;5000107;28;20530;-90
2023/01/30 07:04:15;;;;;;;23.50;12.57;;;;;;;5.31;100.00;99842.69;5001643;28;20944;-87
2023/01/30 07:06:41;;;;;;;18.43;11.60;;;;;;;5.48;100.00;99859.97;5000948;28;20482;-84
2023/01/30 07:09:10;;;;;;;20.13;12.03;;;;;;;5.41;100.00;99854.28;5003082;28;20459;-83
2023/01/30 07:11:36;;;;;;;21.83;12.80;;;;;;;5.44;100.00;99855.88;4999568;28;20538;-84
2023/01/30 07:14:03;;;;;;;20.50;12.13;;;;;;;5.46;100.00;99852.13;5001589;28;20447;-83
2023/01/30 07:16:30;;;;;;;19.90;11.80;;;;;;;5.46;100.00;99852.13;5000178;28;20534;-83
2023/01/30 07:18:58;;;;;;;20.90;13.43;;;;;;;5.44;100.00;99855.88;5001470;28;20517;-84
2023/01/30 07:21:26;;;;;;;17.23;11.33;;;;;;;5.51;100.00;99856.25;4999868;28;20490;-84
2023/01/30 07:23:52;;;;;;;17.83;10.57;;;;;;;5.51;100.00;99846.47;5001776;28;20456;-83
2023/01/30 07:26:19;;;;;;;23.50;11.87;;;;;;;5.51;100.00;99851.78;5000210;28;20496;-84
2023/01/30 07:28:46;;;;;;;20.50;11.57;;;;;;;5.58;100.00;99860.13;4998888;28;20460;-84
2023/01/30 07:31:13;;;;;;;19.37;10.70;;;;;;;5.59;100.00;99854.69;4998517;28;20484;-83
2023/01/30 07:33:39;;;;;;;14.93;10.37;;;;;;;5.49;100.00;99866.97;5002043;28;20455;-83
2023/01/30 07:36:08;;;;;;;18.70;9.50;;;;;;;5.44;100.00;99872.59;5010200;28;20926;-84
2023/01/30 07:38:35;;;;;;;16.13;9.00;;;;;;;5.40;100.00;99867.66;4999218;28;20457;-80
2023/01/30 07:41:02;;;;;;;12.17;7.77;;;;;;;5.48;100.00;99862.63;4999717;28;20507;-83
2023/01/30 07:43:28;;;;;;;19.17;8.50;;;;;;;5.35;100.00;99860.06;5002821;28;20533;-84
2023/01/30 07:45:55;;;;;;;17.23;8.33;;;;;;;5.22;100.00;99873.38;4990866;28;20476;-84
2023/01/30 07:48:22;;;;;;;16.63;6.30;;;;;;;5.19;100.00;99878.94;4986763;28;20463;-83
2023/01/30 07:50:48;;;;;;;11.73;4.87;;;;;;;5.16;100.00;99878.31;5000892;28;20463;-84
2023/01/30 07:53:20;;;;;;;19.00;5.13;;;;;;;5.42;100.00;99876.34;5000181;28;20437;-84
2023/01/30 07:55:46;;;;;;;10.37;4.40;;;;;;;5.44;100.00;99874.44;5000343;28;20502;-84
2023/01/30 07:58:14;;;;;;;15.20;4.70;;;;;;;5.31;100.00;99863.06;4997537;28;20519;-83
2023/01/30 08:00:41;;;;;;;12.80;5.03;;;;;;;5.49;100.00;99869.63;4978860;28;20485;-85
2023/01/30 08:03:11;;;;;;;20.07;4.83;;;;;;;5.57;100.00;99871.66;4990995;28;20476;-84
2023/01/30 08:05:38;;;;;;;6.13;4.20;;;;;;;5.56;100.00;99888.56;4982289;28;20469;-86
2023/01/30 08:08:08;;;;;;;16.50;4.60;;;;;;;5.46;100.00;99894.53;4981930;28;20488;-85
2023/01/30 08:10:36;;;;;;;16.77;3.83;;;;;;;5.97;100.00;99895.13;4974408;28;20477;-83
2023/01/30 08:13:03;;;;;;;11.10;4.80;;;;;;;6.17;100.00;99888.28;4983221;28;20465;-83
2023/01/30 08:15:32;;;;;;;15.33;4.67;;;;;;;6.93;100.00;99886.56;4979734;28;20528;-85
2023/01/30 08:17:59;;;;;;;12.13;4.57;;;;;;;7.34;100.00;99884.94;4980905;28;20733;-85
2023/01/30 08:20:26;;;;;;;14.97;3.80;;;;;;;7.45;100.00;99875.22;4981833;28;20541;-84
2023/01/30 08:22:53;;;;;;;18.53;4.10;;;;;;;7.88;100.00;99875.06;4980054;28;20465;-84
2023/01/30 08:25:21;;;;;;;9.70;2.80;;;;;;;7.20;100.00;99876.41;4981115;28;21455;-86
2023/01/30 08:27:50;;;;;;;12.63;3.40;;;;;;;6.53;100.00;99889.81;4983889;28;20522;-87
2023/01/30 08:30:18;;;;;;;9.60;3.13;;;;;;;6.31;100.00;99887.19;4963744;28;20479;-83
2023/01/30 08:32:45;;;;;;;8.83;2.70;;;;;;;6.24;100.00;99886.00;4970509;28;20461;-84
2023/01/30 08:35:12;;;;;;;12.47;4.77;;;;;;;6.17;100.00;99891.75;4993018;28;20451;-88
2023/01/30 08:37:39;;;;;;;14.83;4.40;;;;;;;6.09;100.00;99880.06;4984711;28;20468;-90
2023/01/30 08:40:07;;;;;;;20.43;3.97;;;;;;;6.14;100.00;99893.81;4975546;28;20453;-92
2023/01/30 08:42:33;;;;;;;12.50;3.53;;;;;;;5.95;100.00;99886.44;4986025;28;20489;-87
2023/01/30 08:45:04;;;;;;;17.77;3.97;;;;;;;6.00;100.00;99900.22;4985444;28;20445;-86
2023/01/30 08:47:31;;;;;;;10.40;3.10;;;;;;;5.94;100.00;99901.50;4985120;28;20549;-86
2023/01/30 08:49:57;;;;;;;14.83;3.40;;;;;;;5.87;100.00;99907.41;4982996;28;20471;-85
2023/01/30 08:52:24;;;;;;;13.77;4.73;;;;;;;5.94;100.00;99901.50;4983111;28;20489;-84
2023/01/30 08:54:51;;;;;;;18.20;3.47;;;;;;;5.96;100.00;99904.91;4985651;28;20527;-83
2023/01/30 08:57:17;;;;;;;12.60;3.70;;;;;;;5.97;100.00;99911.06;4984432;28;20491;-84
2023/01/30 08:59:44;;;;;;;17.37;3.03;;;;;;;5.95;100.00;99910.31;5002713;28;20943;-84
2023/01/30 09:02:13;;;;;;;19.33;3.83;;;;;;;5.89;100.00;99903.66;5010125;28;20490;-87
2023/01/30 09:04:40;;;;;;;13.83;3.30;;;;;;;5.98;100.00;99902.97;5004468;28;20459;-87
2023/01/30 09:07:06;;;;;;;12.67;3.87;;;;;;;5.80;100.00;99904.41;4998780;28;20585;-88
2023/01/30 09:09:33;;;;;;;12.20;3.23;;;;;;;5.81;100.00;99890.16;5002408;28;20444;-87
2023/01/30 09:12:00;;;;;;;14.53;3.53;;;;;;;5.81;100.00;99900.75;4997416;28;20483;-88
2023/01/30 09:14:27;;;;;;;13.60;2.63;;;;;;;5.72;100.00;99897.00;5003151;28;20509;-87
2023/01/30 09:16:55;;;;;;;10.40;3.03;;;;;;;5.84;100.00;99905.84;4998439;28;20493;-87
2023/01/30 09:19:24;;;;;;;19.27;3.60;;;;;;;5.78;100.00;99899.22;5000623;28;20476;-87
2023/01/30 09:21:51;;;;;;;18.70;3.30;;;;;;;6.22;100.00;99896.72;4996529;28;20504;-91
2023/01/30 09:24:18;;;;;;;11.70;3.10;;;;;;;6.35;100.00;99905.41;5009777;28;20471;-88
2023/01/30 09:26:45;;;;;;;19.83;3.47;;;;;;;7.12;100.00;99893.84;5009050;28;20479;-93
2023/01/30 09:29:11;;;;;;;21.27;4.23;;;;;;;8.90;100.00;99897.25;5003817;28;20483;-89
2023/01/30 09:31:38;;;;;;;11.07;3.20;;;;;;;8.19;98.96;99904.31;5006175;28;20507;-91
2023/01/30 09:34:05;;;;;;;9.37;2.83;;;;;;;8.08;100.00;99904.41;5006276;28;20444;-90
2023/01/30 09:36:33;;;;;;;15.23;2.67;;;;;;;7.25;100.00;99906.97;5006246;28;20477;-90
2023/01/30 09:39:00;;;;;;;10.33;2.70;;;;;;;6.81;100.00;99898.19;5006445;28;20457;-91
2023/01/30 09:41:37;;;;;;;17.13;3.10;;;;;;;6.61;100.00;99902.47;5004152;28;20888;-91
2023/01/30 09:44:15;;;;;;;11.40;3.00;;;;;;;6.62;100.00;99893.53;5005974;28;20459;-87
2023/01/30 09:46:47;;;;;;;11.20;3.10;;;;;;;6.46;100.00;99901.91;5005378;28;20566;-90
2023/01/30 09:49:22;;;;;;;18.97;3.60;;;;;;;6.44;100.00;99905.63;5001447;28;20456;-91
2023/01/30 09:51:58;;;;;;;15.97;3.33;;;;;;;6.32;100.00;99918.06;4993216;28;20479;-89
2023/01/30 09:54:29;;;;;;;14.10;3.30;;;;;;;6.21;100.00;99918.91;4999217;28;20432;-89
2023/01/30 09:57:00;;;;;;;17.47;3.90;;;;;;;6.01;100.00;99926.63;5006191;28;20487;-88
2023/01/30 09:59:31;;;;;;;13.83;4.43;;;;;;;6.13;100.00;99905.41;5002771;28;20490;-85
2023/01/30 10:02:03;;;;;;;13.17;4.10;;;;;;;6.17;100.00;99928.94;4992824;28;20854;-89
2023/01/30 10:04:33;;;;;;;15.73;3.60;;;;;;;6.31;100.00;99911.06;4989097;28;20456;-87
2023/01/30 10:07:07;;;;;;;16.17;3.67;;;;;;;6.13;100.00;99906.25;4998178;28;21078;-87
2023/01/30 10:09:41;;;;;;;10.53;2.57;;;;;;;6.30;100.00;99914.69;4998894;28;20483;-88
2023/01/30 10:12:22;;;;;;;17.90;4.00;;;;;;;6.36;100.00;99922.19;4990389;28;20933;-89
2023/01/30 10:15:03;;;;;;;19.33;3.40;;;;;;;6.35;100.00;99916.03;5003174;28;20452;-86
2023/01/30 10:17:34;;;;;;;12.27;3.80;;;;;;;6.19;100.00;99920.84;4991621;28;20856;-90
2023/01/30 10:20:21;;;;;;;12.97;4.87;;;;;;;6.25;100.00;99924.81;5003405;28;20475;-88
2023/01/30 10:22:58;;;;;;;13.30;3.07;;;;;;;6.15;100.00;99930.03;5003110;28;20699;-89
2023/01/30 10:25:29;;;;;;;9.60;2.80;;;;;;;6.25;100.00;99920.38;5003009;28;20456;-89
2023/01/30 10:27:58;;;;;;;15.27;3.70;;;;;;;5.95;100.00;99924.41;5004889;28;20495;-89
2023/01/30 10:30:25;;;;;;;11.07;2.63;;;;;;;5.77;100.00;99921.38;5001025;28;20456;-88
2023/01/30 10:32:54;;;;;;;10.80;2.83;;;;;;;5.99;100.00;99933.03;5002526;28;20483;-87
2023/01/30 10:35:23;;;;;;;11.53;2.90;;;;;;;6.14;100.00;99925.66;5018008;28;20443;-88
2023/01/30 10:37:57;;;;;;;11.83;3.80;;;;;;;6.08;100.00;99924.34;4997838;28;20483;-92
2023/01/30 10:40:28;;;;;;;14.20;2.60;;;;;;;5.92;100.00;99916.72;5004441;28;20440;-89
2023/01/30 10:43:01;;;;;;;14.63;3.10;;;;;;;5.91;100.00;99915.00;5005496;28;20511;-90
2023/01/30 10:45:34;;;;;;;17.37;3.40;;;;;;;5.98;100.00;99923.38;5003381;28;20491;-90
2023/01/30 10:48:12;;;;;;;15.80;3.40;;;;;;;5.83;100.00;99910.31;4999946;28;20475;-90
2023/01/30 10:50:47;;;;;;;21.13;4.10;;;;;;;6.07;100.00;99911.19;4991104;28;20520;-87
2023/01/30 10:53:17;;;;;;;7.90;3.20;;;;;;;5.99;100.00;99917.94;4985382;28;20483;-91
2023/01/30 10:55:48;;;;;;;17.97;3.80;;;;;;;6.12;100.00;99915.16;5003330;28;20498;-91
2023/01/30 10:58:18;;;;;;;12.73;3.80;;;;;;;5.95;100.00;99921.75;5003153;28;20484;-88
2023/01/30 11:00:49;;;;;;;8.63;2.20;;;;;;;6.02;100.00;99920.38;5004928;28;21029;-90
2023/01/30 11:03:29;;;;;;;11.60;3.47;;;;;;;6.29;100.00;99913.00;5004086;28;20464;-87
2023/01/30 11:05:59;;;;;;;16.57;4.33;;;;;;;6.34;100.00;99914.31;5001123;28;20479;-93
2023/01/30 11:08:28;;;;;;;18.10;3.60;;;;;;;6.47;100.00;99916.00;4999971;28;20565;-92
2023/01/30 11:10:56;;;;;;;11.80;2.83;;;;;;;6.52;100.00;99904.03;5002809;28;20463;-88
2023/01/30 11:13:25;;;;;;;19.60;3.80;;;;;;;6.53;100.00;99902.25;5001812;28;20456;-89
2023/01/30 11:15:54;;;;;;;9.67;2.83;;;;;;;6.48;100.00;99896.47;5002880;28;20531;-89
2023/01/30 11:18:21;;;;;;;10.87;3.83;;;;;;;6.79;100.00;99903.63;4995442;28;20479;-88
2023/01/30 11:20:59;;;;;;;18.33;4.40;;;;;;;6.76;100.00;99898.56;5000478;28;20996;-91
2023/01/30 11:23:32;;;;;;;8.93;3.30;;;;;;;6.75;100.00;99875.63;4995931;28;20508;-90
2023/01/30 11:26:02;;;;;;;15.77;3.90;;;;;;;6.93;100.00;99899.84;5000756;28;20477;-92
2023/01/30 11:28:35;;;;;;;12.53;2.70;;;;;;;6.69;100.00;99877.94;5001442;28;20440;-89
2023/01/30 11:31:02;;;;;;;11.17;2.57;;;;;;;6.59;100.00;99881.31;4999497;28;20472;-90
2023/01/30 11:33:33;;;;;;;9.43;2.93;;;;;;;6.38;100.00;99881.25;4994218;28;20459;-86
2023/01/30 11:36:05;;;;;;;14.90;2.80;;;;;;;7.10;100.00;99873.69;4984678;28;20477;-85